Time;durP1;ratioP1;P1;durP2;ratioP2;P2;SDS_P1;SDS_P2;PMS_P1;PMS_P2;Temp;Humidity;BMP_temperature;BMP_pressure;BME280_temperature;BME280_humidity;BME280_pressure;Samples;Min_cycle;Max_cycle;Signal;HPM_P1;HPM_P2
2022/11/01 00:01:24;;;;;;;22.57;14.17;;;;;;;-145.14;100.00;70583.66;5026396;28;20185;-79
2022/11/01 00:03:49;;;;;;;21.80;14.23;;;;;;;-145.14;100.00;70583.66;5006904;28;20649;-77
2022/11/01 00:06:15;;;;;;;20.60;13.40;;;;;;;-145.14;100.00;70583.66;5025623;28;20192;-79
2022/11/01 00:08:40;;;;;;;22.13;15.03;;;;;;;-145.14;100.00;70583.66;5023253;28;20239;-79
2022/11/01 00:11:09;;;;;;;21.00;14.70;;;;;;;-145.14;100.00;70583.66;5018898;28;20193;-79
2022/11/01 00:13:34;;;;;;;22.40;14.00;;;;;;;-145.14;100.00;70583.66;5019672;28;20192;-80
2022/11/01 00:16:00;;;;;;;19.07;14.00;;;;;;;-145.14;100.00;70583.66;5012999;28;20509;-80
2022/11/01 00:18:25;;;;;;;16.40;12.30;;;;;;;-145.14;100.00;70583.66;5002900;28;20187;-79
2022/11/01 00:20:51;;;;;;;20.83;14.37;;;;;;;-145.14;100.00;70583.66;5036262;22;20231;-77
2022/11/01 00:23:17;;;;;;;19.70;14.17;;;;;;;-145.14;100.00;70583.66;5038739;28;20190;-76
2022/11/01 00:25:42;;;;;;;19.30;13.90;;;;;;;-145.14;100.00;70583.66;5032772;28;20270;-76
2022/11/01 00:28:07;;;;;;;17.93;13.53;;;;;;;-145.14;100.00;70583.66;5038498;28;20248;-76
2022/11/01 00:30:37;;;;;;;17.27;13.23;;;;;;;-145.14;100.00;70583.66;5033050;28;20199;-75
2022/11/01 00:33:03;;;;;;;20.47;14.37;;;;;;;-145.14;100.00;70583.66;5039145;28;20203;-76
2022/11/01 00:35:31;;;;;;;20.53;13.83;;;;;;;-145.14;100.00;70583.66;5039393;28;20446;-75
2022/11/01 00:37:58;;;;;;;20.60;13.97;;;;;;;-145.14;100.00;70583.66;5038449;28;20187;-76
2022/11/01 00:40:23;;;;;;;24.60;14.33;;;;;;;-145.14;100.00;70583.66;5035706;28;20458;-76
2022/11/01 00:42:48;;;;;;;20.07;13.67;;;;;;;-145.14;100.00;70583.66;5033715;28;20459;-76
2022/11/01 00:45:14;;;;;;;21.20;14.77;;;;;;;-145.14;100.00;70583.66;5035028;28;20198;-76
2022/11/01 00:47:39;;;;;;;23.50;14.70;;;;;;;-145.14;100.00;70583.66;5035196;28;20195;-76
2022/11/01 00:50:05;;;;;;;17.53;12.70;;;;;;;-145.14;100.00;70583.66;5039776;28;20216;-76
2022/11/01 00:52:31;;;;;;;19.10;13.57;;;;;;;-145.14;100.00;70583.66;5043000;28;20937;-76
2022/11/01 00:54:56;;;;;;;18.10;12.90;;;;;;;-145.14;100.00;70583.66;5036273;28;20196;-76
2022/11/01 00:57:21;;;;;;;18.73;13.37;;;;;;;-145.14;100.00;70583.66;5037870;28;20198;-76
2022/11/01 00:59:47;;;;;;;19.33;14.07;;;;;;;-145.14;100.00;70583.66;5041662;28;20262;-76
2022/11/01 01:02:12;;;;;;;17.70;12.83;;;;;;;-145.14;100.00;70583.66;5042588;28;20251;-76
2022/11/01 01:04:41;;;;;;;22.93;14.53;;;;;;;-145.14;100.00;70583.66;5042602;28;20190;-75
2022/11/01 01:07:06;;;;;;;22.67;14.47;;;;;;;-145.14;100.00;70583.66;5040339;28;20616;-76
2022/11/01 01:09:32;;;;;;;25.10;13.80;;;;;;;-145.14;100.00;70583.66;5045499;28;20466;-76
2022/11/01 01:11:58;;;;;;;18.93;14.00;;;;;;;-145.14;100.00;70583.66;5043641;28;20635;-76
2022/11/01 01:14:24;;;;;;;18.73;13.47;;;;;;;-145.14;100.00;70583.66;5042008;28;20693;-76
2022/11/01 01:16:49;;;;;;;18.20;13.03;;;;;;;-145.14;100.00;70583.66;5034697;28;20237;-76
2022/11/01 01:19:14;;;;;;;19.47;13.33;;;;;;;-145.14;100.00;70583.66;5036902;28;20510;-76
2022/11/01 01:21:40;;;;;;;21.27;13.77;;;;;;;-145.14;100.00;70583.66;5040483;28;20680;-76
2022/11/01 01:24:05;;;;;;;18.13;12.23;;;;;;;-145.14;100.00;70583.66;5040283;28;20278;-75
2022/11/01 01:26:30;;;;;;;19.27;13.70;;;;;;;-145.14;100.00;70583.66;5050970;28;20253;-75
2022/11/01 01:28:56;;;;;;;17.10;12.60;;;;;;;-145.14;100.00;70583.66;5040507;28;20219;-76
2022/11/01 01:31:21;;;;;;;18.67;13.33;;;;;;;-145.14;100.00;70583.66;5030750;28;21270;-75
2022/11/01 01:33:47;;;;;;;18.20;12.40;;;;;;;-145.14;100.00;70583.66;5034854;28;20754;-76
2022/11/01 01:36:12;;;;;;;18.07;12.40;;;;;;;-145.14;100.00;70583.66;5035267;28;20199;-76
2022/11/01 01:38:37;;;;;;;21.43;13.30;;;;;;;-145.14;100.00;70583.66;5036206;28;20252;-75
2022/11/01 01:43:48;;;;;;;18.50;12.70;;;;;;;-145.14;100.00;70583.66;5033168;28;20250;-76
2022/11/01 01:46:13;;;;;;;24.93;14.87;;;;;;;-145.14;100.00;70583.66;5035231;28;20433;-76
2022/11/01 01:48:41;;;;;;;19.73;12.77;;;;;;;-145.14;100.00;70583.66;5030700;28;20561;-77
2022/11/01 01:51:12;;;;;;;16.50;13.00;;;;;;;-145.14;100.00;70583.66;5040380;28;20254;-76
2022/11/01 01:53:45;;;;;;;19.67;13.60;;;;;;;-145.14;100.00;70583.66;5039803;28;21105;-76
2022/11/01 01:56:19;;;;;;;22.07;13.30;;;;;;;-145.14;100.00;70583.66;5030442;28;20442;-75
2022/11/01 01:58:51;;;;;;;16.50;11.80;;;;;;;-145.14;100.00;70583.66;5039840;28;20748;-76
2022/11/01 02:01:16;;;;;;;17.60;12.60;;;;;;;-145.14;100.00;70583.66;5040796;28;20468;-76
2022/11/01 02:03:43;;;;;;;14.13;10.43;;;;;;;-145.14;100.00;70583.66;5041839;28;20445;-76
2022/11/01 02:06:08;;;;;;;22.50;13.07;;;;;;;-145.14;100.00;70583.66;5041339;28;20775;-76
2022/11/01 02:08:35;;;;;;;17.03;10.90;;;;;;;-145.14;100.00;70583.66;5040583;28;20469;-75
2022/11/01 02:11:03;;;;;;;19.43;12.20;;;;;;;-145.14;100.00;70583.66;5033040;28;20211;-75
2022/11/01 02:13:30;;;;;;;19.97;13.00;;;;;;;-145.14;100.00;70583.66;5043277;28;20815;-75
2022/11/01 02:16:36;;;;;;;13.17;10.53;;;;;;;-145.14;100.00;70583.66;5037278;28;20496;-75
2022/11/01 02:19:20;;;;;;;18.23;12.60;;;;;;;-145.14;100.00;70583.66;5038244;28;20438;-75
2022/11/01 02:21:54;;;;;;;16.77;11.80;;;;;;;-145.14;100.00;70583.66;5037380;28;20469;-76
2022/11/01 02:24:32;;;;;;;18.50;11.17;;;;;;;-145.14;100.00;70583.66;5034160;28;20495;-75
2022/11/01 02:27:10;;;;;;;18.83;11.00;;;;;;;-145.14;100.00;70583.66;5033768;28;20532;-75
2022/11/01 02:29:47;;;;;;;14.83;11.10;;;;;;;-145.14;100.00;70583.66;5034451;28;20843;-76
2022/11/01 02:32:26;;;;;;;19.30;10.50;;;;;;;-145.14;100.00;70583.66;5037246;28;20443;-76
2022/11/01 02:35:02;;;;;;;12.70;10.13;;;;;;;-145.14;100.00;70583.66;5040154;28;20430;-76
2022/11/01 02:37:36;;;;;;;16.93;10.57;;;;;;;-145.14;100.00;70583.66;5039414;28;20434;-76
2022/11/01 02:40:07;;;;;;;16.00;10.30;;;;;;;-145.14;100.00;70583.66;5039524;28;20466;-76
2022/11/01 02:42:42;;;;;;;16.43;10.80;;;;;;;-145.14;100.00;70583.66;5038038;28;20438;-76
2022/11/01 02:45:26;;;;;;;15.73;10.53;;;;;;;-145.14;100.00;70583.66;5032918;28;20531;-76
2022/11/01 02:47:52;;;;;;;15.57;9.77;;;;;;;-145.14;100.00;70583.66;5038395;28;20480;-75
2022/11/01 02:50:18;;;;;;;16.90;11.47;;;;;;;-145.14;100.00;70583.66;5035848;28;20481;-76
2022/11/01 02:52:45;;;;;;;16.50;10.30;;;;;;;-145.14;100.00;70583.66;5037200;28;20442;-75
2022/11/01 02:55:30;;;;;;;18.57;12.07;;;;;;;-145.14;100.00;70583.66;5037202;28;20453;-76
2022/11/01 02:58:05;;;;;;;15.33;9.77;;;;;;;-145.14;100.00;70583.66;5040435;28;20438;-76
2022/11/01 03:00:33;;;;;;;15.03;9.93;;;;;;;-145.14;100.00;70583.66;5040545;28;20491;-75
2022/11/01 03:03:15;;;;;;;13.57;9.57;;;;;;;-145.14;100.00;70583.66;5040044;28;20460;-76
2022/11/01 03:05:59;;;;;;;17.53;10.00;;;;;;;-145.14;100.00;70583.66;5045231;28;20433;-75
2022/11/01 03:08:34;;;;;;;16.00;9.87;;;;;;;-145.14;100.00;70583.66;5041471;28;20767;-75
2022/11/01 03:11:16;;;;;;;13.70;9.73;;;;;;;-145.14;100.00;70583.66;5033095;28;20954;-76
2022/11/01 03:13:42;;;;;;;13.70;9.50;;;;;;;-145.14;100.00;70583.66;5038230;28;20507;-76
2022/11/01 03:16:17;;;;;;;13.17;8.57;;;;;;;-145.14;100.00;70583.66;5038846;28;20450;-75
2022/11/01 03:19:18;;;;;;;17.63;9.57;;;;;;;-145.14;100.00;70583.66;5045751;28;20562;-76
2022/11/01 03:21:54;;;;;;;13.93;9.20;;;;;;;-145.14;100.00;70583.66;5038118;28;20473;-76
2022/11/01 03:24:23;;;;;;;18.80;9.30;;;;;;;-145.14;100.00;70583.66;5044145;28;20499;-76
2022/11/01 03:26:57;;;;;;;17.10;9.80;;;;;;;-145.14;100.00;70583.66;5038169;28;20447;-76
2022/11/01 03:29:26;;;;;;;13.00;9.70;;;;;;;-145.14;100.00;70583.66;5035038;28;20491;-74
2022/11/01 03:31:53;;;;;;;15.00;9.87;;;;;;;-145.14;100.00;70583.66;5033280;28;21290;-76
2022/11/01 03:34:19;;;;;;;15.03;8.80;;;;;;;-145.14;100.00;70583.66;5041938;28;20442;-76
2022/11/01 03:36:54;;;;;;;10.13;8.00;;;;;;;-145.14;100.00;70583.66;5025899;28;20450;-76
2022/11/01 03:39:37;;;;;;;14.27;9.43;;;;;;;-145.14;100.00;70583.66;5033417;28;20184;-76
2022/11/01 03:42:08;;;;;;;11.13;8.20;;;;;;;-145.14;100.00;70583.66;5022383;28;20961;-77
2022/11/01 03:44:39;;;;;;;11.07;8.57;;;;;;;-145.14;100.00;70583.66;5020519;28;20442;-75
2022/11/01 03:47:05;;;;;;;14.57;8.80;;;;;;;-145.14;100.00;70583.66;5021649;28;20442;-76
2022/11/01 03:49:30;;;;;;;15.70;8.30;;;;;;;-145.14;100.00;70583.66;5036651;28;20492;-76
2022/11/01 03:51:56;;;;;;;12.90;8.63;;;;;;;-145.14;100.00;70583.66;5023117;28;20494;-77
2022/11/01 03:54:21;;;;;;;11.93;8.27;;;;;;;-145.14;100.00;70583.66;5034731;28;20187;-76
2022/11/01 03:56:47;;;;;;;9.97;7.40;;;;;;;-145.14;100.00;70583.66;5028377;28;20598;-76
2022/11/01 03:59:12;;;;;;;10.03;7.80;;;;;;;-145.14;100.00;70583.66;5031256;28;20192;-77
2022/11/01 04:01:38;;;;;;;11.50;8.10;;;;;;;-145.14;100.00;70583.66;5028486;28;20226;-76
2022/11/01 04:04:03;;;;;;;15.17;8.57;;;;;;;-145.14;100.00;70583.66;5029238;28;20195;-76
2022/11/01 04:06:29;;;;;;;11.77;7.67;;;;;;;-145.14;100.00;70583.66;5029889;28;20225;-76
2022/11/01 04:08:55;;;;;;;11.03;7.27;;;;;;;-145.14;100.00;70583.66;5030473;28;20652;-77
2022/11/01 04:11:20;;;;;;;16.40;8.27;;;;;;;-145.14;100.00;70583.66;5043180;28;20203;-77
2022/11/01 04:13:46;;;;;;;11.47;7.40;;;;;;;-145.14;100.00;70583.66;5041554;28;20855;-76
2022/11/01 04:22:03;;;;;;;11.63;7.80;;;;;;;-145.14;100.00;70583.66;4984611;28;21071;-76
2022/11/01 04:24:28;;;;;;;9.03;6.43;;;;;;;-145.14;100.00;70583.66;4989667;28;20444;-76
2022/11/01 04:26:53;;;;;;;14.93;7.30;;;;;;;-145.14;100.00;70583.66;5005515;28;20257;-77
2022/11/01 04:29:19;;;;;;;8.83;6.20;;;;;;;-145.14;100.00;70583.66;5021463;28;20689;-76
2022/11/01 04:31:44;;;;;;;7.80;6.67;;;;;;;-145.14;100.00;70583.66;5029423;28;20310;-77
2022/11/01 04:34:09;;;;;;;10.50;6.53;;;;;;;-145.14;100.00;70583.66;5033322;28;20185;-77
2022/11/01 04:36:36;;;;;;;9.10;6.70;;;;;;;-145.14;100.00;70583.66;5026593;28;20562;-77
2022/11/01 04:39:01;;;;;;;13.87;6.97;;;;;;;-145.14;100.00;70583.66;5023656;28;20275;-77
2022/11/01 04:41:28;;;;;;;10.60;7.40;;;;;;;-145.14;100.00;70583.66;5031189;28;20473;-77
2022/11/01 04:43:55;;;;;;;8.70;6.67;;;;;;;-145.14;100.00;70583.66;5024597;28;20187;-79
2022/11/01 04:46:21;;;;;;;9.57;6.77;;;;;;;-145.14;100.00;70583.66;5024891;28;21017;-77
2022/11/01 04:48:47;;;;;;;10.87;7.07;;;;;;;-145.14;100.00;70583.66;5023023;28;20531;-77
2022/11/01 04:51:12;;;;;;;10.43;6.73;;;;;;;-145.14;100.00;70583.66;5023589;28;20465;-77
2022/11/01 04:53:38;;;;;;;12.47;6.97;;;;;;;-145.14;100.00;70583.66;5030580;28;20275;-77
2022/11/01 04:56:05;;;;;;;9.10;6.33;;;;;;;-145.14;100.00;70583.66;5025298;28;20880;-77
2022/11/01 04:58:33;;;;;;;10.47;6.33;;;;;;;-145.14;100.00;70583.66;5022784;28;20717;-77
2022/11/01 05:01:03;;;;;;;11.63;6.93;;;;;;;-145.14;100.00;70583.66;5031897;28;20518;-77
2022/11/01 05:03:28;;;;;;;8.50;6.20;;;;;;;-145.14;100.00;70583.66;5042001;28;20445;-77
2022/11/01 05:05:53;;;;;;;11.60;6.37;;;;;;;-145.14;100.00;70583.66;5038934;28;20856;-80
2022/11/01 05:08:19;;;;;;;12.10;6.70;;;;;;;-145.14;100.00;70583.66;5036176;28;20271;-76
2022/11/01 05:10:44;;;;;;;9.10;5.90;;;;;;;-145.14;100.00;70583.66;5038779;28;20204;-76
2022/11/01 05:13:11;;;;;;;6.87;5.07;;;;;;;-145.14;100.00;70583.66;5043087;28;20540;-75
2022/11/01 05:15:37;;;;;;;10.20;5.77;;;;;;;-145.14;100.00;70583.66;5035306;28;20191;-77
2022/11/01 05:18:04;;;;;;;9.03;5.30;;;;;;;-145.14;100.00;70583.66;5038823;28;20447;-77
2022/11/01 05:20:30;;;;;;;8.67;5.33;;;;;;;-145.14;100.00;70583.66;5025669;28;20671;-78
2022/11/01 05:23:00;;;;;;;9.30;5.30;;;;;;;-145.14;100.00;70583.66;5038496;28;20456;-77
2022/11/01 05:25:27;;;;;;;12.40;5.50;;;;;;;-145.14;100.00;70583.66;5033390;28;20442;-77
2022/11/01 05:28:06;;;;;;;10.77;5.27;;;;;;;-145.14;100.00;70583.66;5040688;28;20449;-79
2022/11/01 05:30:32;;;;;;;12.00;5.07;;;;;;;-145.14;100.00;70583.66;5034796;28;20477;-77
2022/11/01 05:32:59;;;;;;;11.53;4.60;;;;;;;-145.14;100.00;70583.66;5041532;28;20522;-77
2022/11/01 05:35:26;;;;;;;15.10;5.50;;;;;;;-145.14;100.00;70583.66;5044936;28;21017;-77
2022/11/01 05:37:51;;;;;;;7.70;4.60;;;;;;;-145.14;100.00;70583.66;5042148;28;20437;-75
2022/11/01 05:40:17;;;;;;;8.73;4.80;;;;;;;-145.14;100.00;70583.66;5040359;28;20458;-78
2022/11/01 05:42:42;;;;;;;11.53;4.90;;;;;;;-145.14;100.00;70583.66;5040309;28;20184;-78
2022/11/01 05:45:09;;;;;;;11.60;5.80;;;;;;;-145.14;100.00;70583.66;5037846;28;20196;-77
2022/11/01 05:47:35;;;;;;;8.33;5.20;;;;;;;-145.14;100.00;70583.66;5035775;28;21220;-80
2022/11/01 05:50:00;;;;;;;8.20;5.30;;;;;;;-145.14;100.00;70583.66;5036846;28;20470;-77
2022/11/01 05:52:26;;;;;;;8.70;4.80;;;;;;;-145.14;100.00;70583.66;5042867;28;20211;-77
2022/11/01 05:54:52;;;;;;;7.43;5.10;;;;;;;-145.14;100.00;70583.66;5045076;28;20215;-78
2022/11/01 05:57:17;;;;;;;7.90;4.60;;;;;;;-145.14;100.00;70583.66;5044353;28;20647;-78
2022/11/01 05:59:42;;;;;;;9.70;5.23;;;;;;;-145.14;100.00;70583.66;5043547;28;20258;-78
2022/11/01 06:02:08;;;;;;;7.30;4.20;;;;;;;-145.14;100.00;70583.66;5047205;28;20270;-79
2022/11/01 06:04:33;;;;;;;8.73;4.70;;;;;;;-145.14;100.00;70583.66;5040090;28;20192;-79
2022/11/01 06:06:58;;;;;;;8.67;4.50;;;;;;;-145.14;100.00;70583.66;5041785;28;20267;-78
2022/11/01 06:09:24;;;;;;;10.60;5.97;;;;;;;-145.14;100.00;70583.66;5042130;28;20196;-78
2022/11/01 06:11:49;;;;;;;9.27;5.00;;;;;;;-145.14;100.00;70583.66;5040941;28;20200;-78
2022/11/01 06:14:15;;;;;;;11.47;4.93;;;;;;;-145.14;100.00;70583.66;5041032;28;20191;-79
2022/11/01 06:16:40;;;;;;;9.50;4.23;;;;;;;-145.14;100.00;70583.66;5041369;28;20180;-77
2022/11/01 06:19:07;;;;;;;8.80;5.07;;;;;;;-145.14;100.00;70583.66;5041492;28;20291;-78
2022/11/01 06:21:33;;;;;;;11.90;4.70;;;;;;;-145.14;100.00;70583.66;5029360;28;20207;-78
2022/11/01 06:23:58;;;;;;;11.63;4.53;;;;;;;-145.14;100.00;70583.66;5027447;22;21332;-79
2022/11/01 06:26:23;;;;;;;12.67;4.93;;;;;;;-145.14;100.00;70583.66;4995573;28;20207;-78
2022/11/01 06:28:49;;;;;;;13.17;4.87;;;;;;;-145.14;100.00;70583.66;5001024;28;20242;-80
2022/11/01 06:31:14;;;;;;;8.83;4.60;;;;;;;-145.14;100.00;70583.66;5015716;28;20253;-80
2022/11/01 06:33:40;;;;;;;8.60;4.70;;;;;;;-145.14;100.00;70583.66;5011879;28;20204;-82
2022/11/01 06:36:05;;;;;;;11.23;5.80;;;;;;;-145.14;100.00;70583.66;5009217;28;20180;-82
2022/11/01 06:38:31;;;;;;;8.00;4.50;;;;;;;-145.14;100.00;70583.66;4985069;28;20197;-84
2022/11/01 06:40:56;;;;;;;6.47;3.80;;;;;;;-145.14;100.00;70583.66;5010063;28;20656;-82
2022/11/01 06:43:22;;;;;;;11.97;4.90;;;;;;;-145.14;100.00;70583.66;5008755;28;20614;-85
2022/11/01 06:45:47;;;;;;;10.03;4.37;;;;;;;-145.14;100.00;70583.66;4998761;28;20238;-82
2022/11/01 06:48:12;;;;;;;5.97;3.93;;;;;;;-145.14;100.00;70583.66;4985227;28;20282;-78
2022/11/01 06:50:38;;;;;;;8.10;3.70;;;;;;;-145.14;100.00;70583.66;5004105;28;20205;-82
2022/11/01 06:53:03;;;;;;;6.07;3.73;;;;;;;-145.14;100.00;70583.66;5008555;28;20212;-78
2022/11/01 06:55:29;;;;;;;5.63;3.20;;;;;;;-145.14;100.00;70583.66;5001892;28;20208;-84
2022/11/01 06:57:57;;;;;;;7.10;3.40;;;;;;;-145.14;100.00;70583.66;4989337;28;20622;-80
2022/11/01 07:00:23;;;;;;;6.80;2.83;;;;;;;-145.14;100.00;70583.66;4984887;28;20185;-81
2022/11/01 07:02:59;;;;;;;10.20;3.90;;;;;;;-145.14;100.00;70583.66;5004213;28;20474;-84
2022/11/01 07:05:25;;;;;;;6.40;3.03;;;;;;;-145.14;100.00;70583.66;4976847;28;20454;-83
2022/11/01 07:07:50;;;;;;;6.57;3.00;;;;;;;-145.14;100.00;70583.66;5003656;28;20439;-80
2022/11/01 07:10:15;;;;;;;6.07;2.83;;;;;;;-145.14;100.00;70583.66;5006013;28;20285;-81
2022/11/01 07:12:41;;;;;;;8.50;2.60;;;;;;;-145.14;100.00;70583.66;4988091;28;20623;-83
2022/11/01 07:15:07;;;;;;;4.90;1.93;;;;;;;-145.14;100.00;70583.66;4974003;28;20657;-84
2022/11/01 07:17:32;;;;;;;4.43;1.83;;;;;;;-145.14;100.00;70583.66;4981325;28;20197;-79
2022/11/01 07:19:58;;;;;;;12.40;1.50;;;;;;;-145.14;100.00;70583.66;5002350;28;20188;-83
2022/11/01 07:22:23;;;;;;;8.23;1.60;;;;;;;-145.14;100.00;70583.66;5006796;28;20197;-79
2022/11/01 07:24:48;;;;;;;4.43;1.27;;;;;;;-145.14;100.00;70583.66;4994719;28;20193;-80
2022/11/01 07:27:14;;;;;;;3.10;1.27;;;;;;;-145.14;100.00;70583.66;5007454;28;20279;-81
2022/11/01 07:29:40;;;;;;;3.50;1.20;;;;;;;-145.14;100.00;70583.66;4999601;28;20218;-81
2022/11/01 07:32:06;;;;;;;7.53;1.20;;;;;;;-145.14;100.00;70583.66;4976369;28;20212;-81
2022/11/01 07:34:31;;;;;;;3.80;1.30;;;;;;;-145.14;100.00;70583.66;4993134;28;20528;-79
2022/11/01 07:36:56;;;;;;;2.00;1.10;;;;;;;-145.14;100.00;70583.66;5013018;28;20188;-84
2022/11/01 07:39:22;;;;;;;4.53;1.37;;;;;;;-145.14;100.00;70583.66;5002307;28;20641;-81
2022/11/01 07:41:50;;;;;;;6.30;1.50;;;;;;;-145.14;100.00;70583.66;5007881;28;20236;-85
2022/11/01 07:44:15;;;;;;;5.37;1.20;;;;;;;-145.14;100.00;70583.66;4974879;28;20208;-79
2022/11/01 07:46:40;;;;;;;5.50;1.37;;;;;;;-145.14;100.00;70583.66;4990333;28;20451;-79
2022/11/01 07:49:06;;;;;;;1.77;0.70;;;;;;;-145.14;100.00;70583.66;4990251;28;20208;-81
2022/11/01 07:51:31;;;;;;;2.33;1.20;;;;;;;-145.14;100.00;70583.66;5000891;28;20189;-81
2022/11/01 07:53:57;;;;;;;4.10;1.40;;;;;;;-145.14;100.00;70583.66;5004281;28;20583;-83
2022/11/01 07:56:22;;;;;;;4.67;1.80;;;;;;;-145.14;100.00;70583.66;4990248;28;20669;-79
2022/11/01 07:58:48;;;;;;;2.60;1.00;;;;;;;-145.14;100.00;70583.66;5001460;28;20188;-85
2022/11/01 08:01:13;;;;;;;5.93;1.40;;;;;;;-145.14;100.00;70583.66;4984136;28;20189;-83
2022/11/01 08:03:39;;;;;;;3.90;1.50;;;;;;;-145.14;100.00;70583.66;5002175;28;20739;-80
2022/11/01 08:06:05;;;;;;;7.30;1.90;;;;;;;-145.14;100.00;70583.66;4992755;28;20236;-80
2022/11/01 08:08:30;;;;;;;6.00;1.20;;;;;;;-145.14;100.00;70583.66;4986305;28;20724;-84
2022/11/01 08:10:58;;;;;;;4.33;1.50;;;;;;;-145.14;100.00;70583.66;4990304;28;20188;-82
2022/11/01 08:13:24;;;;;;;3.87;1.33;;;;;;;-145.14;100.00;70583.66;4989298;28;20263;-80
2022/11/01 08:15:51;;;;;;;5.50;1.30;;;;;;;-145.14;100.00;70583.66;4970221;28;20460;-79
2022/11/01 08:18:17;;;;;;;5.33;1.50;;;;;;;-145.14;100.00;70583.66;4990023;28;20192;-78
2022/11/01 08:20:43;;;;;;;5.50;1.30;;;;;;;-145.14;100.00;70583.66;4985789;28;20448;-77
2022/11/01 08:23:10;;;;;;;4.10;1.40;;;;;;;-145.14;100.00;70583.66;4996147;28;20975;-84
2022/11/01 08:25:36;;;;;;;13.37;1.90;;;;;;;-145.14;100.00;70583.66;5010761;28;20178;-79
2022/11/01 08:28:07;;;;;;;3.90;1.30;;;;;;;-145.14;100.00;70583.66;5014766;28;20424;-85
2022/11/01 08:30:33;;;;;;;4.03;1.30;;;;;;;-145.14;100.00;70583.66;5009681;28;20540;-87
2022/11/01 08:33:03;;;;;;;4.23;1.50;;;;;;;-145.14;100.00;70583.66;4988291;28;20910;-88
2022/11/01 08:35:29;;;;;;;3.57;1.10;;;;;;;-145.14;100.00;70583.66;5011668;28;20458;-89
2022/11/01 08:37:55;;;;;;;6.63;1.30;;;;;;;-145.14;100.00;70583.66;4991316;28;20437;-87
2022/11/01 08:40:21;;;;;;;5.60;1.23;;;;;;;-145.14;100.00;70583.66;4988459;28;20973;-91
2022/11/01 08:42:47;;;;;;;5.97;1.40;;;;;;;-145.14;100.00;70583.66;5011325;28;20270;-85
2022/11/01 08:45:14;;;;;;;7.80;1.90;;;;;;;-145.14;100.00;70583.66;4998694;28;20791;-86
2022/11/01 08:47:40;;;;;;;8.83;1.53;;;;;;;-145.14;100.00;70583.66;4978855;28;20443;-82
2022/11/01 08:50:08;;;;;;;8.53;1.93;;;;;;;-145.14;100.00;70583.66;5008953;28;20463;-87
2022/11/01 08:52:33;;;;;;;5.50;1.50;;;;;;;-145.14;100.00;70583.66;4998122;28;20471;-85
2022/11/01 08:54:59;;;;;;;9.97;1.60;;;;;;;-145.14;100.00;70583.66;4980324;28;20432;-86
2022/11/01 08:57:24;;;;;;;10.30;1.80;;;;;;;-145.14;100.00;70583.66;5001266;28;20571;-89
2022/11/01 08:59:49;;;;;;;8.50;2.40;;;;;;;-145.14;100.00;70583.66;4980496;28;20715;-93
2022/11/01 09:02:15;;;;;;;6.40;1.67;;;;;;;-145.14;100.00;70583.66;5008740;28;20204;-90
2022/11/01 09:04:41;;;;;;;7.97;2.00;;;;;;;-145.14;100.00;70583.66;5003462;28;20847;-87
2022/11/01 09:07:07;;;;;;;7.57;1.77;;;;;;;-145.14;100.00;70583.66;4994273;28;20188;-85
2022/11/01 09:09:32;;;;;;;10.73;2.57;;;;;;;-145.14;100.00;70583.66;5000650;28;20212;-81
2022/11/01 09:11:58;;;;;;;10.97;2.10;;;;;;;-145.14;100.00;70583.66;4998182;28;20446;-86
2022/11/01 09:14:25;;;;;;;10.13;2.00;;;;;;;-145.14;100.00;70583.66;5010467;28;20297;-85
2022/11/01 09:16:50;;;;;;;10.90;2.10;;;;;;;-145.14;100.00;70583.66;4985105;28;20215;-90
2022/11/01 09:19:16;;;;;;;15.93;3.20;;;;;;;-145.14;100.00;70583.66;4999088;28;20474;-92
2022/11/01 09:21:43;;;;;;;13.40;2.00;;;;;;;-145.14;100.00;70583.66;4997858;28;20195;-83
2022/11/01 09:24:10;;;;;;;14.87;3.20;;;;;;;-145.14;100.00;70583.66;4999518;28;20223;-91
2022/11/01 09:26:35;;;;;;;16.13;2.73;;;;;;;-145.14;100.00;70583.66;5008033;28;20436;-79
2022/11/01 09:29:01;;;;;;;12.43;2.70;;;;;;;-145.14;100.00;70583.66;4985303;28;20891;-87
2022/11/01 09:31:27;;;;;;;13.03;2.60;;;;;;;-145.14;100.00;70583.66;5009560;28;20222;-83
2022/11/01 09:33:56;;;;;;;10.43;2.73;;;;;;;-145.14;100.00;70583.66;5011504;28;20610;-78
2022/11/01 09:36:22;;;;;;;13.83;2.80;;;;;;;-145.14;100.00;70583.66;4998796;28;20494;-87
2022/11/01 09:38:48;;;;;;;9.70;2.53;;;;;;;-145.14;100.00;70583.66;4983830;28;20439;-86
2022/11/01 09:41:27;;;;;;;15.77;3.30;;;;;;;-145.14;100.00;70583.66;5016030;28;20431;-84
2022/11/01 09:43:55;;;;;;;16.73;3.20;;;;;;;-145.14;100.00;70583.66;4996149;28;20295;-86
2022/11/01 09:46:25;;;;;;;17.00;2.63;;;;;;;-145.14;100.00;70583.66;4978421;28;20472;-87
2022/11/01 09:48:53;;;;;;;18.23;2.60;;;;;;;-145.14;100.00;70583.66;4997535;28;20471;-83
2022/11/01 09:51:23;;;;;;;14.20;3.93;;;;;;;-145.14;100.00;70583.66;4993712;28;20490;-87
2022/11/01 09:53:52;;;;;;;15.20;3.37;;;;;;;-145.14;100.00;70583.66;5009429;28;20460;-82
2022/11/01 09:56:39;;;;;;;16.90;3.87;;;;;;;-145.14;100.00;70583.66;4975102;28;20435;-89
2022/11/01 09:59:36;;;;;;;14.83;3.57;;;;;;;-145.14;100.00;70583.66;5013170;28;20480;-81
2022/11/01 10:02:32;;;;;;;25.53;4.47;;;;;;;-145.14;100.00;70583.66;4983196;28;20443;-87
2022/11/01 10:05:16;;;;;;;15.80;2.83;;;;;;;-145.14;100.00;70583.66;5003605;28;20521;-86
2022/11/01 10:08:06;;;;;;;18.50;3.83;;;;;;;-145.14;100.00;70583.66;5004993;28;20436;-86
2022/11/01 10:10:41;;;;;;;11.97;3.27;;;;;;;-145.14;100.00;70583.66;4980654;28;20463;-85
2022/11/01 10:13:31;;;;;;;18.43;3.00;;;;;;;-145.14;100.00;70583.66;5009367;28;20462;-85
2022/11/01 10:15:59;;;;;;;16.23;2.73;;;;;;;-145.14;100.00;70583.66;5007616;28;20440;-81
2022/11/01 10:18:34;;;;;;;14.57;3.00;;;;;;;-145.14;100.00;70583.66;5010751;28;20445;-85
2022/11/01 10:21:04;;;;;;;12.97;3.37;;;;;;;-145.14;100.00;70583.66;5015946;28;20470;-83
2022/11/01 10:23:47;;;;;;;19.57;3.90;;;;;;;-145.14;100.00;70583.66;5017085;28;20962;-83
2022/11/01 10:26:26;;;;;;;10.57;3.23;;;;;;;-145.14;100.00;70583.66;5015787;28;20443;-78
2022/11/01 10:29:03;;;;;;;16.77;2.77;;;;;;;-145.14;100.00;70583.66;4994232;28;20455;-86
2022/11/01 10:31:36;;;;;;;17.70;3.10;;;;;;;-145.14;100.00;70583.66;4993363;28;20471;-79
2022/11/01 10:34:13;;;;;;;16.30;3.40;;;;;;;-145.14;100.00;70583.66;5001882;28;20509;-81
2022/11/01 10:36:43;;;;;;;11.67;2.83;;;;;;;-145.14;100.00;70583.66;4997976;28;20439;-82
2022/11/01 10:39:19;;;;;;;12.73;2.80;;;;;;;-145.14;100.00;70583.66;5014284;28;20458;-82
2022/11/01 10:41:51;;;;;;;27.40;4.50;;;;;;;-145.14;100.00;70583.66;5014905;28;20431;-82
2022/11/01 10:44:31;;;;;;;14.23;2.70;;;;;;;-145.14;100.00;70583.66;5012765;28;20451;-82
2022/11/01 10:47:01;;;;;;;12.13;2.80;;;;;;;-145.14;100.00;70583.66;4995619;28;20456;-82
2022/11/01 10:49:31;;;;;;;13.30;3.50;;;;;;;-145.14;100.00;70583.66;5011798;28;20558;-85
2022/11/01 10:52:01;;;;;;;13.00;2.70;;;;;;;-145.14;100.00;70583.66;5014201;28;20826;-86
2022/11/01 10:54:30;;;;;;;13.83;2.60;;;;;;;-145.14;100.00;70583.66;4999681;28;20459;-86
2022/11/01 10:57:00;;;;;;;14.60;4.07;;;;;;;-145.14;100.00;70583.66;4999978;28;20442;-86
2022/11/01 10:59:41;;;;;;;16.10;3.93;;;;;;;-145.14;100.00;70583.66;5013900;28;20449;-86
2022/11/01 11:02:32;;;;;;;11.50;3.00;;;;;;;-145.14;100.00;70583.66;4985100;28;20937;-89
2022/11/01 11:04:58;;;;;;;16.90;3.13;;;;;;;-145.14;100.00;70583.66;4992802;28;20543;-90
2022/11/01 11:07:27;;;;;;;15.73;3.70;;;;;;;-145.14;100.00;70583.66;5004113;28;20558;-83
2022/11/01 11:09:53;;;;;;;16.23;3.40;;;;;;;-145.14;100.00;70583.66;5015934;28;20283;-83
2022/11/01 11:12:22;;;;;;;13.13;2.67;;;;;;;-145.14;100.00;70583.66;5004681;28;20602;-83
2022/11/01 11:14:56;;;;;;;16.43;3.03;;;;;;;-145.14;100.00;70583.66;4995038;28;20436;-84
2022/11/01 11:17:34;;;;;;;7.40;2.57;;;;;;;-145.14;100.00;70583.66;4996354;28;20435;-86